sensor_id;sensor_type;location;lat;lon;timestamp;P1;durP1;ratioP1;P2;durP2;ratioP2
59474;SDS011;45288;51.136;16.928;2023-04-25T00:01:35;470.43;;;439.37;;
59474;SDS011;45288;51.136;16.928;2023-04-25T00:04:02;490.83;;;457.27;;
59474;SDS011;45288;51.136;16.928;2023-04-25T00:06:28;511.40;;;477.13;;
59474;SDS011;45288;51.136;16.928;2023-04-25T00:08:55;483.77;;;450.63;;
59474;SDS011;45288;51.136;16.928;2023-04-25T00:11:22;523.47;;;488.98;;
59474;SDS011;45288;51.136;16.928;2023-04-25T00:13:48;522.47;;;486.58;;
59474;SDS011;45288;51.136;16.928;2023-04-25T00:16:15;646.97;;;603.80;;
59474;SDS011;45288;51.136;16.928;2023-04-25T00:18:43;570.13;;;531.45;;
59474;SDS011;45288;51.136;16.928;2023-04-25T00:21:09;922.45;;;860.58;;
59474;SDS011;45288;51.136;16.928;2023-04-25T00:23:35;639.08;;;596.88;;
59474;SDS011;45288;51.136;16.928;2023-04-25T00:26:04;653.33;;;610.03;;
59474;SDS011;45288;51.136;16.928;2023-04-25T00:28:29;634.17;;;592.00;;
59474;SDS011;45288;51.136;16.928;2023-04-25T00:30:55;964.87;;;897.97;;
59474;SDS011;45288;51.136;16.928;2023-04-25T00:33:21;611.75;;;570.38;;
59474;SDS011;45288;51.136;16.928;2023-04-25T00:35:46;710.70;;;663.03;;
59474;SDS011;45288;51.136;16.928;2023-04-25T00:38:12;957.67;;;891.30;;
59474;SDS011;45288;51.136;16.928;2023-04-25T00:40:37;816.92;;;763.35;;
59474;SDS011;45288;51.136;16.928;2023-04-25T00:43:04;594.87;;;554.40;;
59474;SDS011;45288;51.136;16.928;2023-04-25T00:45:30;593.35;;;553.08;;
59474;SDS011;45288;51.136;16.928;2023-04-25T00:47:55;475.70;;;443.70;;
59474;SDS011;45288;51.136;16.928;2023-04-25T00:50:22;511.10;;;476.95;;
59474;SDS011;45288;51.136;16.928;2023-04-25T00:52:47;486.00;;;452.80;;
59474;SDS011;45288;51.136;16.928;2023-04-25T00:55:13;873.85;;;814.97;;
59474;SDS011;45288;51.136;16.928;2023-04-25T00:57:40;513.60;;;479.95;;
59474;SDS011;45288;51.136;16.928;2023-04-25T01:00:06;473.30;;;441.07;;
59474;SDS011;45288;51.136;16.928;2023-04-25T01:02:32;542.25;;;506.02;;
59474;SDS011;45288;51.136;16.928;2023-04-25T01:04:58;699.50;;;653.28;;
59474;SDS011;45288;51.136;16.928;2023-04-25T01:07:24;761.60;;;711.27;;
59474;SDS011;45288;51.136;16.928;2023-04-25T01:09:51;587.53;;;547.97;;
59474;SDS011;45288;51.136;16.928;2023-04-25T01:12:17;808.63;;;753.13;;
59474;SDS011;45288;51.136;16.928;2023-04-25T01:14:43;843.10;;;789.15;;
59474;SDS011;45288;51.136;16.928;2023-04-25T01:17:09;758.67;;;708.42;;
59474;SDS011;45288;51.136;16.928;2023-04-25T01:19:35;963.13;;;894.57;;
59474;SDS011;45288;51.136;16.928;2023-04-25T01:22:00;829.53;;;773.93;;
59474;SDS011;45288;51.136;16.928;2023-04-25T01:24:27;793.83;;;742.40;;
59474;SDS011;45288;51.136;16.928;2023-04-25T01:26:54;957.95;;;890.40;;
59474;SDS011;45288;51.136;16.928;2023-04-25T01:29:23;936.33;;;870.15;;
59474;SDS011;45288;51.136;16.928;2023-04-25T01:31:51;909.25;;;849.38;;
59474;SDS011;45288;51.136;16.928;2023-04-25T01:34:18;934.17;;;872.45;;
59474;SDS011;45288;51.136;16.928;2023-04-25T01:36:44;899.05;;;840.28;;
59474;SDS011;45288;51.136;16.928;2023-04-25T01:39:10;939.60;;;867.77;;
59474;SDS011;45288;51.136;16.928;2023-04-25T01:41:36;819.95;;;766.80;;
59474;SDS011;45288;51.136;16.928;2023-04-25T01:44:02;928.75;;;866.47;;
59474;SDS011;45288;51.136;16.928;2023-04-25T01:46:27;739.22;;;690.97;;
59474;SDS011;45288;51.136;16.928;2023-04-25T01:48:53;945.70;;;881.00;;
59474;SDS011;45288;51.136;16.928;2023-04-25T01:51:20;775.58;;;725.25;;
59474;SDS011;45288;51.136;16.928;2023-04-25T01:53:45;820.93;;;767.77;;
59474;SDS011;45288;51.136;16.928;2023-04-25T01:56:12;929.65;;;867.53;;
59474;SDS011;45288;51.136;16.928;2023-04-25T01:58:38;846.58;;;791.47;;
59474;SDS011;45288;51.136;16.928;2023-04-25T02:01:22;871.08;;;815.00;;
59474;SDS011;45288;51.136;16.928;2023-04-25T02:04:03;866.83;;;810.20;;
59474;SDS011;45288;51.136;16.928;2023-04-25T02:06:33;929.33;;;866.80;;
59474;SDS011;45288;51.136;16.928;2023-04-25T02:08:59;954.03;;;884.70;;
59474;SDS011;45288;51.136;16.928;2023-04-25T02:11:25;938.23;;;874.43;;
59474;SDS011;45288;51.136;16.928;2023-04-25T02:14:01;942.72;;;878.35;;
59474;SDS011;45288;51.136;16.928;2023-04-25T02:16:49;943.95;;;876.38;;
59474;SDS011;45288;51.136;16.928;2023-04-25T02:19:16;948.10;;;879.63;;
59474;SDS011;45288;51.136;16.928;2023-04-25T02:21:42;940.40;;;877.97;;
59474;SDS011;45288;51.136;16.928;2023-04-25T02:24:10;927.90;;;866.03;;
59474;SDS011;45288;51.136;16.928;2023-04-25T02:26:35;935.57;;;873.33;;
59474;SDS011;45288;51.136;16.928;2023-04-25T02:29:02;938.47;;;875.78;;
59474;SDS011;45288;51.136;16.928;2023-04-25T02:31:27;936.10;;;872.00;;
59474;SDS011;45288;51.136;16.928;2023-04-25T02:33:53;940.95;;;876.60;;
59474;SDS011;45288;51.136;16.928;2023-04-25T02:36:18;929.23;;;867.63;;
59474;SDS011;45288;51.136;16.928;2023-04-25T02:38:44;938.63;;;876.45;;
59474;SDS011;45288;51.136;16.928;2023-04-25T02:41:10;930.73;;;869.07;;
59474;SDS011;45288;51.136;16.928;2023-04-25T02:43:35;936.35;;;872.58;;
59474;SDS011;45288;51.136;16.928;2023-04-25T02:46:01;940.37;;;875.80;;
59474;SDS011;45288;51.136;16.928;2023-04-25T02:48:26;943.80;;;877.67;;
59474;SDS011;45288;51.136;16.928;2023-04-25T02:50:52;937.47;;;870.47;;
59474;SDS011;45288;51.136;16.928;2023-04-25T02:53:18;937.75;;;873.33;;
59474;SDS011;45288;51.136;16.928;2023-04-25T02:55:48;929.13;;;863.78;;
59474;SDS011;45288;51.136;16.928;2023-04-25T02:58:13;922.33;;;861.10;;
59474;SDS011;45288;51.136;16.928;2023-04-25T03:00:49;938.30;;;873.00;;
59474;SDS011;45288;51.136;16.928;2023-04-25T03:03:19;907.30;;;845.37;;
59474;SDS011;45288;51.136;16.928;2023-04-25T03:05:50;921.50;;;852.35;;
59474;SDS011;45288;51.136;16.928;2023-04-25T03:08:21;884.35;;;826.95;;
59474;SDS011;45288;51.136;16.928;2023-04-25T03:10:46;887.80;;;827.13;;
59474;SDS011;45288;51.136;16.928;2023-04-25T03:13:14;917.08;;;854.35;;
59474;SDS011;45288;51.136;16.928;2023-04-25T03:15:42;886.88;;;828.28;;
59474;SDS011;45288;51.136;16.928;2023-04-25T03:18:07;832.50;;;774.70;;
59474;SDS011;45288;51.136;16.928;2023-04-25T03:20:33;912.40;;;849.23;;
59474;SDS011;45288;51.136;16.928;2023-04-25T03:22:59;834.22;;;779.30;;
59474;SDS011;45288;51.136;16.928;2023-04-25T03:25:24;679.00;;;634.20;;
59474;SDS011;45288;51.136;16.928;2023-04-25T03:27:50;686.83;;;641.35;;
59474;SDS011;45288;51.136;16.928;2023-04-25T03:30:16;907.50;;;847.03;;
59474;SDS011;45288;51.136;16.928;2023-04-25T03:32:43;845.03;;;790.28;;
59474;SDS011;45288;51.136;16.928;2023-04-25T03:35:12;884.10;;;826.22;;
59474;SDS011;45288;51.136;16.928;2023-04-25T03:37:38;895.55;;;834.97;;
59474;SDS011;45288;51.136;16.928;2023-04-25T03:40:06;910.80;;;843.40;;
59474;SDS011;45288;51.136;16.928;2023-04-25T03:42:52;895.43;;;829.83;;
59474;SDS011;45288;51.136;16.928;2023-04-25T03:45:17;852.13;;;797.33;;
59474;SDS011;45288;51.136;16.928;2023-04-25T03:47:43;704.90;;;659.28;;
59474;SDS011;45288;51.136;16.928;2023-04-25T03:50:10;631.33;;;590.15;;
59474;SDS011;45288;51.136;16.928;2023-04-25T03:52:36;894.33;;;835.03;;
59474;SDS011;45288;51.136;16.928;2023-04-25T03:55:02;851.75;;;792.35;;
59474;SDS011;45288;51.136;16.928;2023-04-25T03:57:28;807.90;;;756.13;;
59474;SDS011;45288;51.136;16.928;2023-04-25T03:59:54;759.33;;;709.83;;
59474;SDS011;45288;51.136;16.928;2023-04-25T04:02:20;568.28;;;531.33;;
59474;SDS011;45288;51.136;16.928;2023-04-25T04:04:47;872.38;;;813.88;;
59474;SDS011;45288;51.136;16.928;2023-04-25T04:07:13;870.40;;;813.45;;
59474;SDS011;45288;51.136;16.928;2023-04-25T04:09:41;848.38;;;793.15;;
59474;SDS011;45288;51.136;16.928;2023-04-25T04:12:11;659.03;;;615.78;;
59474;SDS011;45288;51.136;16.928;2023-04-25T04:14:39;762.45;;;712.50;;
59474;SDS011;45288;51.136;16.928;2023-04-25T04:17:05;646.27;;;603.47;;
59474;SDS011;45288;51.136;16.928;2023-04-25T04:19:31;570.40;;;533.42;;
59474;SDS011;45288;51.136;16.928;2023-04-25T04:22:13;529.10;;;494.10;;
59474;SDS011;45288;51.136;16.928;2023-04-25T04:24:40;511.80;;;477.73;;
59474;SDS011;45288;51.136;16.928;2023-04-25T04:27:07;622.22;;;581.05;;
59474;SDS011;45288;51.136;16.928;2023-04-25T04:29:35;555.55;;;518.72;;
59474;SDS011;45288;51.136;16.928;2023-04-25T04:32:10;603.75;;;564.80;;
59474;SDS011;45288;51.136;16.928;2023-04-25T04:34:36;520.50;;;487.17;;
59474;SDS011;45288;51.136;16.928;2023-04-25T04:37:03;513.70;;;480.63;;
59474;SDS011;45288;51.136;16.928;2023-04-25T04:39:29;536.10;;;500.38;;
59474;SDS011;45288;51.136;16.928;2023-04-25T04:42:10;550.95;;;514.60;;
59474;SDS011;45288;51.136;16.928;2023-04-25T04:44:53;544.65;;;507.48;;
59474;SDS011;45288;51.136;16.928;2023-04-25T04:47:40;611.47;;;571.40;;
59474;SDS011;45288;51.136;16.928;2023-04-25T04:50:24;540.88;;;504.88;;
59474;SDS011;45288;51.136;16.928;2023-04-25T04:53:10;648.50;;;605.47;;
59474;SDS011;45288;51.136;16.928;2023-04-25T04:55:45;717.95;;;671.08;;
59474;SDS011;45288;51.136;16.928;2023-04-25T04:58:29;658.13;;;615.20;;
59474;SDS011;45288;51.136;16.928;2023-04-25T05:01:12;509.08;;;474.88;;
59474;SDS011;45288;51.136;16.928;2023-04-25T05:03:54;544.28;;;509.13;;
59474;SDS011;45288;51.136;16.928;2023-04-25T05:06:45;491.55;;;459.67;;
59474;SDS011;45288;51.136;16.928;2023-04-25T05:09:37;527.85;;;493.38;;
59474;SDS011;45288;51.136;16.928;2023-04-25T05:12:25;603.10;;;563.38;;
59474;SDS011;45288;51.136;16.928;2023-04-25T05:14:59;901.05;;;838.90;;
59474;SDS011;45288;51.136;16.928;2023-04-25T05:17:30;899.42;;;839.25;;
59474;SDS011;45288;51.136;16.928;2023-04-25T05:20:22;840.70;;;786.30;;
59474;SDS011;45288;51.136;16.928;2023-04-25T05:23:06;838.10;;;783.50;;
59474;SDS011;45288;51.136;16.928;2023-04-25T05:25:41;692.38;;;647.42;;
59474;SDS011;45288;51.136;16.928;2023-04-25T05:28:26;611.40;;;571.03;;
59474;SDS011;45288;51.136;16.928;2023-04-25T05:31:27;613.92;;;573.83;;
59474;SDS011;45288;51.136;16.928;2023-04-25T05:34:08;653.37;;;610.87;;
59474;SDS011;45288;51.136;16.928;2023-04-25T05:36:54;583.85;;;544.90;;
59474;SDS011;45288;51.136;16.928;2023-04-25T05:39:20;559.67;;;522.33;;
59474;SDS011;45288;51.136;16.928;2023-04-25T05:42:05;911.57;;;852.33;;
59474;SDS011;45288;51.136;16.928;2023-04-25T05:44:48;941.63;;;871.42;;
59474;SDS011;45288;51.136;16.928;2023-04-25T05:47:26;837.85;;;783.83;;
59474;SDS011;45288;51.136;16.928;2023-04-25T05:50:02;781.78;;;730.53;;
59474;SDS011;45288;51.136;16.928;2023-04-25T05:52:47;921.80;;;857.33;;
59474;SDS011;45288;51.136;16.928;2023-04-25T05:55:23;723.80;;;675.60;;
59474;SDS011;45288;51.136;16.928;2023-04-25T05:57:49;724.03;;;675.70;;
59474;SDS011;45288;51.136;16.928;2023-04-25T06:00:16;921.15;;;859.83;;
59474;SDS011;45288;51.136;16.928;2023-04-25T06:02:43;896.15;;;837.78;;
59474;SDS011;45288;51.136;16.928;2023-04-25T06:05:12;898.60;;;839.23;;
59474;SDS011;45288;51.136;16.928;2023-04-25T06:07:37;893.30;;;835.07;;
59474;SDS011;45288;51.136;16.928;2023-04-25T06:10:03;687.13;;;640.67;;
59474;SDS011;45288;51.136;16.928;2023-04-25T06:12:32;674.55;;;630.17;;
59474;SDS011;45288;51.136;16.928;2023-04-25T06:14:58;662.90;;;619.55;;
59474;SDS011;45288;51.136;16.928;2023-04-25T06:17:24;650.63;;;607.80;;
59474;SDS011;45288;51.136;16.928;2023-04-25T06:19:51;597.90;;;557.15;;
59474;SDS011;45288;51.136;16.928;2023-04-25T06:22:17;593.42;;;553.67;;
59474;SDS011;45288;51.136;16.928;2023-04-25T06:24:43;656.80;;;614.08;;
59474;SDS011;45288;51.136;16.928;2023-04-25T06:27:08;944.33;;;878.17;;
59474;SDS011;45288;51.136;16.928;2023-04-25T06:29:34;939.47;;;877.17;;
59474;SDS011;45288;51.136;16.928;2023-04-25T06:32:00;955.42;;;891.20;;
59474;SDS011;45288;51.136;16.928;2023-04-25T06:34:26;912.85;;;853.42;;
59474;SDS011;45288;51.136;16.928;2023-04-25T06:36:52;928.10;;;867.33;;
59474;SDS011;45288;51.136;16.928;2023-04-25T06:39:17;901.28;;;842.80;;
59474;SDS011;45288;51.136;16.928;2023-04-25T06:41:43;829.13;;;774.67;;
59474;SDS011;45288;51.136;16.928;2023-04-25T06:44:28;796.20;;;743.60;;
59474;SDS011;45288;51.136;16.928;2023-04-25T06:46:55;818.23;;;764.03;;
59474;SDS011;45288;51.136;16.928;2023-04-25T06:49:21;797.67;;;744.97;;
59474;SDS011;45288;51.136;16.928;2023-04-25T06:51:47;725.25;;;676.47;;
59474;SDS011;45288;51.136;16.928;2023-04-25T06:54:13;893.38;;;834.90;;
59474;SDS011;45288;51.136;16.928;2023-04-25T06:56:48;649.83;;;605.83;;
59474;SDS011;45288;51.136;16.928;2023-04-25T06:59:15;992.63;;;924.67;;
59474;SDS011;45288;51.136;16.928;2023-04-25T07:01:42;865.00;;;808.72;;
59474;SDS011;45288;51.136;16.928;2023-04-25T07:04:16;764.05;;;713.22;;
59474;SDS011;45288;51.136;16.928;2023-04-25T07:06:55;813.00;;;757.90;;
59474;SDS011;45288;51.136;16.928;2023-04-25T07:09:37;925.38;;;865.38;;
59474;SDS011;45288;51.136;16.928;2023-04-25T07:12:04;862.20;;;805.45;;
59474;SDS011;45288;51.136;16.928;2023-04-25T07:14:29;763.27;;;712.03;;
59474;SDS011;45288;51.136;16.928;2023-04-25T07:16:56;972.55;;;907.33;;
59474;SDS011;45288;51.136;16.928;2023-04-25T07:19:28;891.55;;;833.30;;
59474;SDS011;45288;51.136;16.928;2023-04-25T07:21:57;964.55;;;900.22;;
59474;SDS011;45288;51.136;16.928;2023-04-25T07:24:23;903.75;;;838.63;;
59474;SDS011;45288;51.136;16.928;2023-04-25T07:26:50;970.20;;;903.72;;
59474;SDS011;45288;51.136;16.928;2023-04-25T07:29:29;972.30;;;902.80;;
59474;SDS011;45288;51.136;16.928;2023-04-25T07:31:58;923.35;;;862.78;;
59474;SDS011;45288;51.136;16.928;2023-04-25T07:34:23;948.30;;;885.97;;
59474;SDS011;45288;51.136;16.928;2023-04-25T07:36:49;978.07;;;911.03;;
59474;SDS011;45288;51.136;16.928;2023-04-25T07:39:15;988.47;;;919.05;;
59474;SDS011;45288;51.136;16.928;2023-04-25T07:41:41;983.20;;;913.45;;
59474;SDS011;45288;51.136;16.928;2023-04-25T07:44:10;996.85;;;927.85;;
59474;SDS011;45288;51.136;16.928;2023-04-25T07:46:36;980.77;;;915.97;;
59474;SDS011;45288;51.136;16.928;2023-04-25T07:49:04;981.92;;;916.58;;
59474;SDS011;45288;51.136;16.928;2023-04-25T07:51:30;946.20;;;884.08;;
59474;SDS011;45288;51.136;16.928;2023-04-25T07:53:59;976.85;;;911.58;;
59474;SDS011;45288;51.136;16.928;2023-04-25T07:56:33;987.37;;;923.37;;
59474;SDS011;45288;51.136;16.928;2023-04-25T07:58:59;941.08;;;879.25;;
59474;SDS011;45288;51.136;16.928;2023-04-25T08:01:29;880.78;;;823.13;;
59474;SDS011;45288;51.136;16.928;2023-04-25T08:03:58;868.33;;;811.45;;
59474;SDS011;45288;51.136;16.928;2023-04-25T08:06:41;988.97;;;922.00;;
59474;SDS011;45288;51.136;16.928;2023-04-25T08:09:12;892.38;;;833.53;;
59474;SDS011;45288;51.136;16.928;2023-04-25T08:11:40;867.17;;;810.10;;
59474;SDS011;45288;51.136;16.928;2023-04-25T08:14:09;836.77;;;780.73;;
59474;SDS011;45288;51.136;16.928;2023-04-25T08:16:36;874.60;;;817.03;;
59474;SDS011;45288;51.136;16.928;2023-04-25T08:19:02;810.23;;;755.57;;
59474;SDS011;45288;51.136;16.928;2023-04-25T08:21:30;910.25;;;851.20;;
59474;SDS011;45288;51.136;16.928;2023-04-25T08:23:59;828.90;;;773.58;;
59474;SDS011;45288;51.136;16.928;2023-04-25T08:26:29;804.40;;;750.40;;
59474;SDS011;45288;51.136;16.928;2023-04-25T08:28:54;871.92;;;814.00;;
59474;SDS011;45288;51.136;16.928;2023-04-25T08:31:21;956.00;;;893.85;;
59474;SDS011;45288;51.136;16.928;2023-04-25T08:33:56;866.60;;;809.15;;
59474;SDS011;45288;51.136;16.928;2023-04-25T08:36:41;834.05;;;778.05;;
59474;SDS011;45288;51.136;16.928;2023-04-25T08:39:19;955.90;;;892.75;;
59474;SDS011;45288;51.136;16.928;2023-04-25T08:42:06;973.92;;;910.03;;
59474;SDS011;45288;51.136;16.928;2023-04-25T08:44:36;993.97;;;928.78;;
59474;SDS011;45288;51.136;16.928;2023-04-25T08:47:05;939.03;;;877.27;;
59474;SDS011;45288;51.136;16.928;2023-04-25T08:49:34;1011.17;;;944.03;;
59474;SDS011;45288;51.136;16.928;2023-04-25T08:52:02;1010.30;;;944.57;;
59474;SDS011;45288;51.136;16.928;2023-04-25T08:54:30;819.40;;;764.10;;
59474;SDS011;45288;51.136;16.928;2023-04-25T08:56:56;841.97;;;785.13;;
59474;SDS011;45288;51.136;16.928;2023-04-25T08:59:23;932.83;;;871.50;;
59474;SDS011;45288;51.136;16.928;2023-04-25T09:01:49;974.70;;;909.70;;
59474;SDS011;45288;51.136;16.928;2023-04-25T09:04:15;955.08;;;890.55;;
59474;SDS011;45288;51.136;16.928;2023-04-25T09:06:41;839.73;;;783.90;;
59474;SDS011;45288;51.136;16.928;2023-04-25T09:09:07;642.65;;;598.45;;
59474;SDS011;45288;51.136;16.928;2023-04-25T09:11:33;587.13;;;547.05;;
59474;SDS011;45288;51.136;16.928;2023-04-25T09:19:35;868.22;;;809.83;;
59474;SDS011;45288;51.136;16.928;2023-04-25T09:22:02;825.85;;;769.63;;
59474;SDS011;45288;51.136;16.928;2023-04-25T09:24:30;830.83;;;774.97;;
59474;SDS011;45288;51.136;16.928;2023-04-25T09:26:56;967.05;;;897.10;;
59474;SDS011;45288;51.136;16.928;2023-04-25T09:29:28;915.40;;;854.17;;
59474;SDS011;45288;51.136;16.928;2023-04-25T09:32:06;773.37;;;720.43;;
59474;SDS011;45288;51.136;16.928;2023-04-25T09:34:40;753.08;;;701.45;;
59474;SDS011;45288;51.136;16.928;2023-04-25T09:37:10;801.58;;;746.85;;
59474;SDS011;45288;51.136;16.928;2023-04-25T09:39:55;632.28;;;588.25;;
59474;SDS011;45288;51.136;16.928;2023-04-25T09:42:21;675.30;;;628.95;;
59474;SDS011;45288;51.136;16.928;2023-04-25T09:44:47;574.55;;;534.92;;
59474;SDS011;45288;51.136;16.928;2023-04-25T09:47:14;597.72;;;556.03;;
59474;SDS011;45288;51.136;16.928;2023-04-25T09:49:42;613.28;;;571.03;;
59474;SDS011;45288;51.136;16.928;2023-04-25T09:52:13;620.45;;;576.08;;
59474;SDS011;45288;51.136;16.928;2023-04-25T09:54:47;589.65;;;549.13;;
59474;SDS011;45288;51.136;16.928;2023-04-25T09:57:25;557.17;;;518.33;;
59474;SDS011;45288;51.136;16.928;2023-04-25T09:59:54;577.33;;;536.97;;
59474;SDS011;45288;51.136;16.928;2023-04-25T10:02:26;603.72;;;560.80;;
59474;SDS011;45288;51.136;16.928;2023-04-25T10:04:56;677.88;;;629.85;;
59474;SDS011;45288;51.136;16.928;2023-04-25T10:07:29;738.30;;;686.80;;
59474;SDS011;45288;51.136;16.928;2023-04-25T10:09:59;864.78;;;806.15;;
59474;SDS011;45288;51.136;16.928;2023-04-25T10:12:27;940.38;;;877.88;;
59474;SDS011;45288;51.136;16.928;2023-04-25T10:14:52;1003.63;;;935.85;;
59474;SDS011;45288;51.136;16.928;2023-04-25T10:17:19;874.65;;;815.30;;
59474;SDS011;45288;51.136;16.928;2023-04-25T10:19:46;1007.70;;;940.27;;
59474;SDS011;45288;51.136;16.928;2023-04-25T10:22:13;1040.30;;;968.90;;
59474;SDS011;45288;51.136;16.928;2023-04-25T10:24:40;874.55;;;815.17;;
59474;SDS011;45288;51.136;16.928;2023-04-25T10:27:06;787.90;;;732.72;;
59474;SDS011;45288;51.136;16.928;2023-04-25T10:29:32;656.35;;;609.30;;
59474;SDS011;45288;51.136;16.928;2023-04-25T10:31:57;436.07;;;405.37;;
59474;SDS011;45288;51.136;16.928;2023-04-25T10:34:24;418.13;;;388.65;;
59474;SDS011;45288;51.136;16.928;2023-04-25T10:36:59;444.52;;;413.13;;
59474;SDS011;45288;51.136;16.928;2023-04-25T10:39:28;430.50;;;400.40;;
59474;SDS011;45288;51.136;16.928;2023-04-25T10:41:57;448.63;;;417.25;;
59474;SDS011;45288;51.136;16.928;2023-04-25T10:44:27;430.95;;;401.33;;
59474;SDS011;45288;51.136;16.928;2023-04-25T10:46:54;529.22;;;492.67;;
59474;SDS011;45288;51.136;16.928;2023-04-25T10:52:11;600.70;;;558.38;;
59474;SDS011;45288;51.136;16.928;2023-04-25T10:54:41;634.20;;;590.17;;
59474;SDS011;45288;51.136;16.928;2023-04-25T10:57:07;681.60;;;633.25;;
59474;SDS011;45288;51.136;16.928;2023-04-25T10:59:33;600.80;;;558.95;;
59474;SDS011;45288;51.136;16.928;2023-04-25T11:01:58;579.87;;;538.90;;
59474;SDS011;45288;51.136;16.928;2023-04-25T11:04:28;536.53;;;498.63;;
59474;SDS011;45288;51.136;16.928;2023-04-25T11:09:25;1086.75;;;999.90;;
59474;SDS011;45288;51.136;16.928;2023-04-25T11:11:55;924.85;;;862.20;;
59474;SDS011;45288;51.136;16.928;2023-04-25T11:14:21;1068.82;;;996.38;;
59474;SDS011;45288;51.136;16.928;2023-04-25T11:16:47;862.38;;;803.70;;
59474;SDS011;45288;51.136;16.928;2023-04-25T11:19:12;1043.87;;;974.00;;
59474;SDS011;45288;51.136;16.928;2023-04-25T11:21:38;944.83;;;881.17;;
59474;SDS011;45288;51.136;16.928;2023-04-25T11:24:04;962.38;;;898.30;;
59474;SDS011;45288;51.136;16.928;2023-04-25T11:26:30;755.27;;;702.23;;
59474;SDS011;45288;51.136;16.928;2023-04-25T11:28:59;958.70;;;894.08;;
59474;SDS011;45288;51.136;16.928;2023-04-25T11:31:25;846.33;;;788.30;;
59474;SDS011;45288;51.136;16.928;2023-04-25T11:33:52;850.45;;;791.88;;
59474;SDS011;45288;51.136;16.928;2023-04-25T11:36:18;687.63;;;637.97;;
59474;SDS011;45288;51.136;16.928;2023-04-25T11:38:44;670.80;;;623.10;;
59474;SDS011;45288;51.136;16.928;2023-04-25T11:41:10;659.50;;;612.37;;
59474;SDS011;45288;51.136;16.928;2023-04-25T11:43:35;645.72;;;599.53;;
59474;SDS011;45288;51.136;16.928;2023-04-25T11:46:01;678.20;;;629.67;;
59474;SDS011;45288;51.136;16.928;2023-04-25T11:48:36;668.03;;;620.38;;
59474;SDS011;45288;51.136;16.928;2023-04-25T11:51:02;832.15;;;774.22;;
59474;SDS011;45288;51.136;16.928;2023-04-25T11:53:28;827.95;;;770.80;;
59474;SDS011;45288;51.136;16.928;2023-04-25T11:55:53;730.27;;;678.50;;
59474;SDS011;45288;51.136;16.928;2023-04-25T11:58:19;718.08;;;666.72;;
59474;SDS011;45288;51.136;16.928;2023-04-25T12:00:45;712.43;;;662.03;;
59474;SDS011;45288;51.136;16.928;2023-04-25T12:03:10;754.38;;;701.25;;
59474;SDS011;45288;51.136;16.928;2023-04-25T12:05:36;707.17;;;657.40;;
59474;SDS011;45288;51.136;16.928;2023-04-25T12:08:12;650.30;;;603.33;;
59474;SDS011;45288;51.136;16.928;2023-04-25T12:10:39;713.83;;;664.20;;
59474;SDS011;45288;51.136;16.928;2023-04-25T12:13:18;762.42;;;709.30;;
59474;SDS011;45288;51.136;16.928;2023-04-25T12:15:44;726.55;;;675.33;;
59474;SDS011;45288;51.136;16.928;2023-04-25T12:18:10;713.77;;;662.67;;
59474;SDS011;45288;51.136;16.928;2023-04-25T12:20:35;736.33;;;684.72;;
59474;SDS011;45288;51.136;16.928;2023-04-25T12:23:01;725.77;;;674.43;;
59474;SDS011;45288;51.136;16.928;2023-04-25T12:25:37;706.30;;;656.13;;
59474;SDS011;45288;51.136;16.928;2023-04-25T12:28:19;659.72;;;611.60;;
59474;SDS011;45288;51.136;16.928;2023-04-25T12:33:27;1092.30;;;999.90;;
59474;SDS011;45288;51.136;16.928;2023-04-25T12:35:53;1085.40;;;999.90;;
59474;SDS011;45288;51.136;16.928;2023-04-25T12:38:22;1077.57;;;999.90;;
59474;SDS011;45288;51.136;16.928;2023-04-25T12:40:48;1077.57;;;999.90;;
59474;SDS011;45288;51.136;16.928;2023-04-25T12:43:14;1030.25;;;960.15;;
59474;SDS011;45288;51.136;16.928;2023-04-25T12:45:39;1061.30;;;984.00;;
59474;SDS011;45288;51.136;16.928;2023-04-25T12:48:05;1060.85;;;983.17;;
59474;SDS011;45288;51.136;16.928;2023-04-25T12:50:30;525.53;;;489.57;;
59474;SDS011;45288;51.136;16.928;2023-04-25T12:52:56;534.28;;;497.17;;
59474;SDS011;45288;51.136;16.928;2023-04-25T12:55:22;587.60;;;547.13;;
59474;SDS011;45288;51.136;16.928;2023-04-25T12:57:48;465.48;;;433.83;;
59474;SDS011;45288;51.136;16.928;2023-04-25T13:00:14;413.83;;;384.80;;
59474;SDS011;45288;51.136;16.928;2023-04-25T13:02:45;535.85;;;498.98;;
59474;SDS011;45288;51.136;16.928;2023-04-25T13:05:12;563.70;;;524.38;;
59474;SDS011;45288;51.136;16.928;2023-04-25T13:07:38;980.92;;;913.90;;
59474;SDS011;45288;51.136;16.928;2023-04-25T13:10:04;814.80;;;758.85;;
59474;SDS011;45288;51.136;16.928;2023-04-25T13:12:30;1031.47;;;961.50;;
59474;SDS011;45288;51.136;16.928;2023-04-25T13:14:56;919.88;;;857.58;;
59474;SDS011;45288;51.136;16.928;2023-04-25T13:17:21;784.97;;;730.90;;
59474;SDS011;45288;51.136;16.928;2023-04-25T13:19:47;867.65;;;807.50;;
59474;SDS011;45288;51.136;16.928;2023-04-25T13:22:12;542.27;;;504.87;;
59474;SDS011;45288;51.136;16.928;2023-04-25T13:24:40;626.13;;;582.63;;
59474;SDS011;45288;51.136;16.928;2023-04-25T13:27:06;904.93;;;843.77;;
59474;SDS011;45288;51.136;16.928;2023-04-25T13:29:31;927.25;;;865.15;;
59474;SDS011;45288;51.136;16.928;2023-04-25T13:32:00;1000.00;;;930.08;;
59474;SDS011;45288;51.136;16.928;2023-04-25T13:34:26;888.70;;;827.58;;
59474;SDS011;45288;51.136;16.928;2023-04-25T13:36:52;656.63;;;610.80;;
59474;SDS011;45288;51.136;16.928;2023-04-25T13:39:17;627.13;;;583.40;;
59474;SDS011;45288;51.136;16.928;2023-04-25T13:41:43;543.95;;;506.65;;
59474;SDS011;45288;51.136;16.928;2023-04-25T13:44:09;584.20;;;543.30;;
59474;SDS011;45288;51.136;16.928;2023-04-25T13:46:35;547.85;;;510.05;;
59474;SDS011;45288;51.136;16.928;2023-04-25T13:49:02;594.92;;;553.35;;
59474;SDS011;45288;51.136;16.928;2023-04-25T13:51:28;979.90;;;914.25;;
59474;SDS011;45288;51.136;16.928;2023-04-25T13:53:54;957.03;;;893.00;;
59474;SDS011;45288;51.136;16.928;2023-04-25T13:56:19;1004.40;;;935.77;;
59474;SDS011;45288;51.136;16.928;2023-04-25T13:58:45;693.90;;;644.05;;
59474;SDS011;45288;51.136;16.928;2023-04-25T14:01:11;1051.07;;;978.55;;
59474;SDS011;45288;51.136;16.928;2023-04-25T14:03:37;946.10;;;882.10;;
59474;SDS011;45288;51.136;16.928;2023-04-25T14:06:02;803.50;;;747.03;;
59474;SDS011;45288;51.136;16.928;2023-04-25T14:08:29;607.88;;;565.22;;